Terminal Aerodrome Forecast
Issued by NWS Aberdeen, SD

Home | Current Version | Previous Version | Text Only | Print | Product List | Glossary On
Versions: 1 2 3 4 5 6 7 8 9 10 11 12 13 14 15 16 17 18 19 20 21 22 23 24 25 26 27 28 29 30 31 32 33 34 35 36 37 38 39
000
FTAK31 PAFA 252325
TAFABR
TAF
PABR 252325Z 2600/2624 12021KT P6SM BKN180
     FM260900 18010KT 5SM BR FEW025 BKN120
     FM261400 28012KT 2SM BR FEW005 BKN012 OVC120
     FM262100 31009KT P6SM SCT012 BKN120=

USA.gov is the U.S. government's official web portal to all federal, state and local government web resources and services.